Ana Sayfa
METAR-TAF:

METAR-TAF

Havaalanları :

Shannon Airport

Fredericksburg, Virginia, Amerika Birleşik Devletleri

Enlem: 38-16N, Boylam: 077-27W, yükseklik: 26 m

Güncel hava durumu gözlemi

Rapor saat 10:35 UTC de 12 dakika önce yapıldı.
Rüzgar kuzey/kuzeybatıdan 5 kt
Sıcaklık 1°C
Nem 93%
Basınç 1026 hPa
Görüş mesafesi: 16.1 km
4500 ft yükseklikte parçalı bulutlu
5500 ft yükseklikte parçalı çok bulutlu
7500 ft yükseklikte çok bulutlu

METAR: KEZF 111035Z AUTO 33005KT 10SM SCT045 BKN055 OVC075 01/00 A3030 RMK AO2 T00130002

Saat: 05:47 (10:47 UTC)


TAF: eksik

4.000'den fazla havaalanı için hava durumu gözlemleri ve tahminleri (METAR ve TAF raporları).

Kullanılabilir istasyonlar harita üzerinde sarı ve kırmızı noktalarla gösterilir.

İstasyonun adını görmek için fareyi noktanın üzerinde gezdirin.

Sonrasında hava gözlem ve tahminlerini görmek için tıklayın.

Haritayı değiştirmek için: yaklaştırmak için siyah artı işaretli yeşil düğmeye ve uzaklaştırmak için de eksi işaretli düğmeye hızla tıklayın; bitişik haritalar için yeşil okları kullanın.


METAR-TAF: